createdAt,value
2018-08-09T00:01:43.084Z,50.71
2018-08-09T00:04:12.703Z,51.89
2018-08-09T00:06:42.730Z,51.12
2018-08-09T00:09:13.133Z,51.91
2018-08-09T00:11:42.873Z,51.97
2018-08-09T00:14:13.022Z,53.24
2018-08-09T00:16:42.887Z,52.78
2018-08-09T00:19:12.510Z,53.14
2018-08-09T00:21:42.942Z,52.83
2018-08-09T00:24:12.658Z,52.57
2018-08-09T00:26:42.890Z,52.64
2018-08-09T00:29:12.472Z,52.84
2018-08-09T00:31:42.919Z,51.74
2018-08-09T00:34:12.623Z,51.60
2018-08-09T00:36:43.024Z,51.10
2018-08-09T00:39:13.751Z,51.45
2018-08-09T00:41:44.278Z,51.43
2018-08-09T00:44:13.736Z,52.08
2018-08-09T00:46:43.605Z,51.19
2018-08-09T00:49:13.379Z,51.86
2018-08-09T00:51:43.685Z,52.35
2018-08-09T00:54:13.153Z,52.88
2018-08-09T00:56:43.024Z,51.79
2018-08-09T00:59:12.796Z,52.78
2018-08-09T01:01:43.125Z,52.42
2018-08-09T01:04:12.822Z,51.36
2018-08-09T01:06:42.900Z,52.11
2018-08-09T01:09:15.324Z,51.67
2018-08-09T01:11:45.554Z,52.37
2018-08-09T01:14:15.194Z,52.59
2018-08-09T01:16:44.881Z,52.79
2018-08-09T01:19:14.491Z,53.50
2018-08-09T01:21:44.291Z,53.69
2018-08-09T01:24:13.851Z,53.71
2018-08-09T01:26:43.552Z,54.01
2018-08-09T01:29:13.082Z,53.97
2018-08-09T01:31:43.017Z,54.15
2018-08-09T01:34:12.595Z,54.70
2018-08-09T01:36:43.618Z,53.86
2018-08-09T01:39:14.015Z,54.10
2018-08-09T01:43:01.571Z,54.13
2018-08-09T01:45:31.070Z,52.89
2018-08-09T01:48:01.014Z,53.78
2018-08-09T01:50:31.044Z,53.13
2018-08-09T01:53:00.804Z,53.14
2018-08-09T01:55:30.653Z,54.32
2018-08-09T01:58:00.864Z,53.89
2018-08-09T02:00:30.300Z,53.08
2018-08-09T02:03:00.041Z,53.88
2018-08-09T02:05:29.812Z,54.38
2018-08-09T02:07:59.542Z,55.54
2018-08-09T02:10:29.354Z,54.95
2018-08-09T02:12:58.931Z,55.50
2018-08-09T02:15:28.410Z,54.97
2018-08-09T02:17:57.915Z,54.09
2018-08-09T02:20:27.417Z,54.43
2018-08-09T02:22:57.216Z,53.29
2018-08-09T02:25:27.287Z,55.33
2018-08-09T02:28:00.652Z,55.22
2018-08-09T02:30:30.397Z,55.16
2018-08-09T02:33:00.159Z,54.90
2018-08-09T02:35:29.809Z,54.46
2018-08-09T02:37:59.631Z,54.85
2018-08-09T02:40:29.289Z,54.96
2018-08-09T02:42:59.129Z,54.51
2018-08-09T02:45:28.802Z,55.40
2018-08-09T02:47:58.779Z,56.29
2018-08-09T02:50:28.296Z,56.35
2018-08-09T02:52:58.076Z,55.32
2018-08-09T02:55:28.259Z,54.37
2018-08-09T02:57:58.151Z,54.26
2018-08-09T03:00:27.689Z,54.08
2018-08-09T03:02:57.474Z,53.74
2018-08-09T03:05:27.169Z,54.36
2018-08-09T03:07:57.294Z,53.61
2018-08-09T03:10:27.022Z,53.17
2018-08-09T03:12:56.506Z,53.27
2018-08-09T03:15:26.158Z,54.45
2018-08-09T03:17:55.964Z,54.10
2018-08-09T03:20:25.453Z,53.71
2018-08-09T03:22:55.146Z,53.37
2018-08-09T03:25:24.921Z,53.99
2018-08-09T03:27:54.561Z,54.12
2018-08-09T03:30:24.672Z,53.64
2018-08-09T03:32:54.175Z,54.16
2018-08-09T03:35:24.069Z,54.23
2018-08-09T03:37:53.835Z,53.90
2018-08-09T03:40:23.479Z,54.02
2018-08-09T03:42:53.313Z,54.82
2018-08-09T03:45:22.758Z,55.47
2018-08-09T03:47:52.493Z,54.71
2018-08-09T03:50:22.211Z,56.08
2018-08-09T03:52:52.059Z,56.26
2018-08-09T03:55:21.833Z,57.57
2018-08-09T03:57:51.518Z,57.78
2018-08-09T04:00:21.296Z,56.60
2018-08-09T04:02:51.202Z,57.66
2018-08-09T04:05:21.210Z,57.71
2018-08-09T04:07:51.010Z,56.63
2018-08-09T04:10:20.744Z,56.58
2018-08-09T04:12:50.622Z,57.52
2018-08-09T04:15:20.812Z,56.72
2018-08-09T04:17:50.943Z,56.73
2018-08-09T04:20:20.664Z,57.14
2018-08-09T04:22:50.492Z,58.56
2018-08-09T04:25:19.946Z,59.04
2018-08-09T04:27:49.832Z,58.20
2018-08-09T04:30:19.461Z,58.71
2018-08-09T04:32:49.668Z,58.22
2018-08-09T04:35:19.398Z,59.37
2018-08-09T04:37:50.062Z,58.89
2018-08-09T04:40:19.695Z,58.05
2018-08-09T04:42:49.671Z,58.06
2018-08-09T04:45:19.544Z,59.21
2018-08-09T04:47:49.285Z,59.85
2018-08-09T04:50:18.859Z,58.95
2018-08-09T04:52:48.988Z,59.29
2018-08-09T04:55:18.743Z,59.11
2018-08-09T04:57:48.548Z,59.87
2018-08-09T05:00:18.157Z,60.20
2018-08-09T05:02:47.974Z,59.13
2018-08-09T05:05:17.795Z,59.03
2018-08-09T05:07:47.520Z,59.09
2018-08-09T05:10:17.316Z,58.58
2018-08-09T05:12:47.733Z,59.22
2018-08-09T05:15:17.802Z,58.64
2018-08-09T05:17:47.726Z,57.99
2018-08-09T05:20:17.609Z,58.63
2018-08-09T05:22:47.336Z,57.49
2018-08-09T05:25:17.125Z,58.44
2018-08-09T05:27:46.982Z,57.49
2018-08-09T05:30:16.720Z,58.02
2018-08-09T05:32:46.749Z,57.69
2018-08-09T05:35:16.531Z,56.86
2018-08-09T05:37:46.002Z,57.59
2018-08-09T05:40:15.779Z,57.72
2018-08-09T05:42:45.647Z,57.10
2018-08-09T05:45:15.343Z,57.77
2018-08-09T05:47:44.965Z,57.57
2018-08-09T05:50:14.998Z,56.29
2018-08-09T05:52:44.887Z,56.37
2018-08-09T05:55:14.856Z,56.80
2018-08-09T05:57:44.607Z,55.92
2018-08-09T06:00:14.538Z,57.25
2018-08-09T06:02:45.123Z,56.74
2018-08-09T06:05:15.091Z,57.45
2018-08-09T06:07:44.825Z,56.90
2018-08-09T06:10:14.787Z,56.28
2018-08-09T06:12:44.442Z,57.11
2018-08-09T06:15:14.410Z,57.29
2018-08-09T06:17:44.239Z,57.08
2018-08-09T06:20:14.133Z,56.88
2018-08-09T06:22:44.089Z,57.29
2018-08-09T06:25:14.065Z,57.70
2018-08-09T06:27:44.630Z,57.15
2018-08-09T06:30:14.415Z,57.78
2018-08-09T06:32:44.295Z,57.54
2018-08-09T06:35:13.833Z,56.92
2018-08-09T06:37:43.861Z,57.88
2018-08-09T06:40:15.020Z,57.62
2018-08-09T06:42:45.384Z,56.45
2018-08-09T06:45:15.745Z,56.10
2018-08-09T06:47:45.641Z,56.54
2018-08-09T06:50:15.627Z,55.97
2018-08-09T06:52:45.634Z,56.08
2018-08-09T06:55:16.019Z,55.27
2018-08-09T06:57:46.263Z,54.81
2018-08-09T07:00:16.446Z,56.12
2018-08-09T07:02:46.054Z,55.65
2018-08-09T07:05:15.980Z,54.81
2018-08-09T07:07:45.986Z,54.96
2018-08-09T07:10:16.024Z,55.68
2018-08-09T07:12:45.830Z,54.73
2018-08-09T07:15:15.875Z,55.53
2018-08-09T07:17:45.594Z,54.63
2018-08-09T07:20:15.338Z,54.50
2018-08-09T07:22:45.390Z,54.33
2018-08-09T07:25:15.404Z,54.95
2018-08-09T07:27:45.667Z,53.90
2018-08-09T07:30:15.514Z,54.38
2018-08-09T07:32:45.657Z,53.51
2018-08-09T07:35:15.341Z,54.24
2018-08-09T07:37:45.164Z,53.99
2018-08-09T07:40:15.238Z,53.87
2018-08-09T07:42:45.304Z,53.34
2018-08-09T07:45:15.668Z,53.47
2018-08-09T07:47:45.769Z,54.70
2018-08-09T07:50:15.821Z,56.19
2018-08-09T07:52:45.872Z,56.54
2018-08-09T07:55:15.420Z,58.78
2018-08-09T07:57:45.272Z,59.21
2018-08-09T08:00:15.198Z,59.48
2018-08-09T08:02:45.034Z,58.86
2018-08-09T08:05:14.875Z,58.62
2018-08-09T08:07:45.264Z,59.05
2018-08-09T08:10:15.375Z,58.22
2018-08-09T08:12:48.455Z,58.44
2018-08-09T08:15:18.310Z,58.95
2018-08-09T08:17:48.512Z,58.59
2018-08-09T08:20:18.058Z,58.75
2018-08-09T08:22:48.419Z,58.06
2018-08-09T08:25:18.692Z,58.34
2018-08-09T08:27:48.999Z,57.06
2018-08-09T08:30:18.662Z,56.13
2018-08-09T08:32:48.417Z,55.98
2018-08-09T08:35:18.078Z,55.05
2018-08-09T08:37:48.322Z,55.07
2018-08-09T08:40:18.438Z,56.40
2018-08-09T08:42:48.469Z,56.17
2018-08-09T08:45:19.158Z,55.92
2018-08-09T08:47:49.091Z,55.55
2018-08-09T08:50:18.940Z,56.45
2018-08-09T08:52:49.152Z,55.93
2018-08-09T08:55:19.296Z,56.21
2018-08-09T08:57:49.430Z,55.85
2018-08-09T09:00:19.597Z,55.75
2018-08-09T09:02:49.186Z,54.17
2018-08-09T09:05:18.993Z,54.48
2018-08-09T09:07:48.797Z,52.62
2018-08-09T09:10:18.301Z,52.65
2018-08-09T09:12:47.876Z,51.33
2018-08-09T09:15:17.682Z,51.38
2018-08-09T09:17:47.847Z,51.45
2018-08-09T09:20:18.155Z,51.99
2018-08-09T09:22:48.268Z,50.96
2018-08-09T09:25:18.037Z,51.82
2018-08-09T09:27:48.155Z,51.82
2018-08-09T09:30:18.819Z,50.97
2018-08-09T09:32:48.410Z,50.33
2018-08-09T09:35:18.188Z,49.93
2018-08-09T09:37:48.012Z,49.38
2018-08-09T09:40:17.941Z,49.11
2018-08-09T09:42:47.700Z,49.09
2018-08-09T09:45:17.813Z,49.22
2018-08-09T09:47:47.588Z,48.96
2018-08-09T09:50:17.647Z,47.90
2018-08-09T09:52:47.551Z,47.64
2018-08-09T09:55:17.802Z,48.33
2018-08-09T09:57:47.895Z,47.54
2018-08-09T10:00:23.089Z,48.01
2018-08-09T10:02:52.822Z,47.32
2018-08-09T10:05:22.354Z,46.33
2018-08-09T10:07:52.357Z,46.77
2018-08-09T10:10:22.192Z,46.64
2018-08-09T10:12:52.510Z,46.54
2018-08-09T10:15:22.597Z,45.75
2018-08-09T10:17:52.882Z,46.92
2018-08-09T10:20:23.058Z,47.69
2018-08-09T10:22:52.798Z,47.30
2018-08-09T10:25:22.937Z,46.90
2018-08-09T10:27:52.571Z,46.52
2018-08-09T10:30:22.505Z,46.06
2018-08-09T10:32:52.267Z,46.86
2018-08-09T10:35:21.981Z,46.25
2018-08-09T10:37:51.899Z,48.16
2018-08-09T10:40:21.777Z,48.52
2018-08-09T10:42:51.569Z,47.43
2018-08-09T10:45:21.099Z,48.36
2018-08-09T10:47:51.521Z,48.07
2018-08-09T10:50:21.634Z,47.71
2018-08-09T10:52:51.561Z,45.97
2018-08-09T10:55:21.507Z,45.30
2018-08-09T10:57:50.998Z,45.64
2018-08-09T11:00:20.559Z,45.54
2018-08-09T11:02:50.558Z,46.85
2018-08-09T11:05:21.027Z,46.04
2018-08-09T11:07:51.096Z,46.74
2018-08-09T11:10:20.925Z,46.75
2018-08-09T11:12:50.481Z,46.83
2018-08-09T11:15:20.435Z,48.26
2018-08-09T11:17:50.664Z,47.73
2018-08-09T11:20:20.724Z,47.54
2018-08-09T11:22:50.695Z,48.12
2018-08-09T11:25:20.794Z,48.99
2018-08-09T11:27:50.393Z,48.33
2018-08-09T11:30:20.217Z,48.38
2018-08-09T11:32:50.252Z,48.88
2018-08-09T11:35:19.908Z,48.49
2018-08-09T11:37:49.662Z,48.06
2018-08-09T11:40:19.164Z,48.82
2018-08-09T11:42:48.748Z,47.78
2018-08-09T11:45:18.825Z,48.14
2018-08-09T11:47:48.814Z,48.71
2018-08-09T11:50:18.735Z,48.32
2018-08-09T11:52:48.380Z,49.15
2018-08-09T11:55:18.270Z,48.25
2018-08-09T11:57:48.027Z,49.06
2018-08-09T12:00:18.060Z,48.27
2018-08-09T12:02:48.238Z,48.12
2018-08-09T12:05:18.046Z,48.15
2018-08-09T12:07:48.109Z,49.31
2018-08-09T12:10:17.871Z,48.58
2018-08-09T12:12:47.592Z,48.20
2018-08-09T12:15:17.915Z,49.47
2018-08-09T12:17:47.906Z,49.14
2018-08-09T12:20:17.717Z,49.59
2018-08-09T12:22:48.504Z,49.20
2018-08-09T12:25:18.387Z,50.06
2018-08-09T12:27:48.123Z,48.91
2018-08-09T12:30:17.773Z,49.31
2018-08-09T12:32:47.773Z,49.38
2018-08-09T12:35:18.151Z,50.61
2018-08-09T12:37:47.975Z,50.30
2018-08-09T12:40:18.421Z,49.69
2018-08-09T12:42:48.231Z,50.93
2018-08-09T12:45:17.796Z,50.93
2018-08-09T12:47:47.804Z,50.16
2018-08-09T12:50:17.716Z,50.38
2018-08-09T12:53:02.669Z,51.67
2018-08-09T12:55:33.047Z,51.28
2018-08-09T12:58:03.245Z,50.48
2018-08-09T13:00:32.850Z,51.41
2018-08-09T13:03:03.203Z,51.24
2018-08-09T13:05:32.974Z,50.91
2018-08-09T13:08:03.437Z,49.83
2018-08-09T13:10:32.982Z,50.83
2018-08-09T13:13:02.999Z,50.74
2018-08-09T13:15:32.890Z,50.73
2018-08-09T13:18:03.270Z,49.59
2018-08-09T13:20:33.377Z,45.22
2018-08-09T13:23:03.273Z,42.96
2018-08-09T13:25:32.809Z,42.24
2018-08-09T13:28:02.857Z,41.18
2018-08-09T13:30:32.537Z,42.07
2018-08-09T13:33:02.467Z,42.33
2018-08-09T13:35:32.380Z,41.10
2018-08-09T13:38:02.605Z,41.05
2018-08-09T13:40:32.576Z,42.31
2018-08-09T13:43:02.210Z,42.86
2018-08-09T13:45:32.320Z,42.32
2018-08-09T13:48:02.483Z,43.62
2018-08-09T13:50:32.674Z,44.30
2018-08-09T13:53:02.518Z,47.59
2018-08-09T13:55:32.110Z,50.81
2018-08-09T13:58:02.026Z,56.45
2018-08-09T14:00:32.168Z,59.41
2018-08-09T14:03:01.902Z,59.31
2018-08-09T14:05:32.193Z,60.14
2018-08-09T14:08:02.010Z,63.47
2018-08-09T14:10:32.622Z,62.92
2018-08-09T14:13:02.878Z,62.67
2018-08-09T14:15:32.359Z,64.27
2018-08-09T14:18:02.270Z,64.42
2018-08-09T14:20:32.281Z,63.98
2018-08-09T14:23:03.147Z,65.50
2018-08-09T14:25:32.721Z,65.74
2018-08-09T14:28:03.030Z,66.40
2018-08-09T14:30:32.867Z,64.82
2018-08-09T14:33:02.761Z,65.25
2018-08-09T14:35:32.454Z,65.29
2018-08-09T14:38:02.594Z,66.19
2018-08-09T14:40:32.496Z,65.56
2018-08-09T14:43:02.679Z,65.56
2018-08-09T14:45:32.589Z,65.99
2018-08-09T14:48:02.365Z,65.89
2018-08-09T14:50:32.394Z,65.65
2018-08-09T14:53:02.150Z,66.84
2018-08-09T14:55:31.585Z,66.43
2018-08-09T14:58:01.563Z,66.87
2018-08-09T15:00:31.194Z,67.33
2018-08-09T15:03:01.498Z,68.63
2018-08-09T15:05:31.292Z,68.94
2018-08-09T15:08:01.060Z,68.94
2018-08-09T15:10:30.711Z,69.32
2018-08-09T15:13:00.426Z,70.99
2018-08-09T15:15:30.420Z,69.72
2018-08-09T15:18:00.133Z,70.21
2018-08-09T15:20:29.594Z,70.13
2018-08-09T15:23:00.216Z,70.44
2018-08-09T15:25:30.222Z,71.34
2018-08-09T15:28:00.107Z,72.09
2018-08-09T15:30:29.663Z,72.30
2018-08-09T15:32:59.536Z,70.43
2018-08-09T15:35:29.500Z,69.79
2018-08-09T15:37:59.323Z,69.58
2018-08-09T15:40:29.477Z,70.53
2018-08-09T15:42:59.204Z,69.80
2018-08-09T15:45:28.850Z,68.36
2018-08-09T15:47:58.813Z,69.24
2018-08-09T15:50:29.089Z,69.19
2018-08-09T15:52:59.200Z,69.73
2018-08-09T15:55:28.847Z,69.45
2018-08-09T15:57:58.850Z,68.97
2018-08-09T16:00:28.323Z,67.19
2018-08-09T16:02:58.602Z,66.77
2018-08-09T16:05:28.514Z,67.28
2018-08-09T16:07:58.468Z,67.23
2018-08-09T16:10:29.837Z,66.77
2018-08-09T16:12:59.862Z,66.79
2018-08-09T16:15:29.701Z,65.59
2018-08-09T16:17:59.667Z,66.16
2018-08-09T16:20:29.466Z,66.40
2018-08-09T16:22:59.277Z,65.63
2018-08-09T16:25:29.243Z,66.29
2018-08-09T16:27:58.977Z,65.43
2018-08-09T16:30:29.222Z,65.11
2018-08-09T16:32:59.093Z,65.62
2018-08-09T16:35:28.653Z,64.55
2018-08-09T16:37:58.807Z,64.87
2018-08-09T16:40:28.632Z,64.52
2018-08-09T16:42:58.252Z,63.98
2018-08-09T16:45:27.804Z,63.81
2018-08-09T16:47:57.452Z,63.40
2018-08-09T16:50:27.349Z,64.08
2018-08-09T16:52:57.157Z,64.01
2018-08-09T16:55:27.331Z,63.22
2018-08-09T16:57:57.546Z,63.29
2018-08-09T17:00:27.664Z,62.70
2018-08-09T17:02:57.588Z,63.53
2018-08-09T17:05:28.225Z,62.51
2018-08-09T17:07:58.418Z,63.65
2018-08-09T17:10:27.914Z,62.65
2018-08-09T17:12:57.783Z,63.18
2018-08-09T17:15:28.938Z,62.91
2018-08-09T17:17:59.845Z,62.30
2018-08-09T17:20:31.683Z,62.63
2018-08-09T17:23:02.752Z,62.48
2018-08-09T17:25:32.719Z,62.24
2018-08-09T17:28:02.653Z,62.04
2018-08-09T17:30:32.520Z,60.50
2018-08-09T17:33:02.689Z,60.87
2018-08-09T17:35:32.932Z,60.75
2018-08-09T17:38:03.124Z,59.73
2018-08-09T17:40:34.605Z,60.04
2018-08-09T17:43:04.966Z,60.25
2018-08-09T17:45:36.270Z,59.95
2018-08-09T17:48:06.428Z,59.50
2018-08-09T17:50:35.958Z,58.90
2018-08-09T17:53:07.406Z,59.78
2018-08-09T17:55:37.242Z,59.59
2018-08-09T17:58:07.176Z,58.75
2018-08-09T18:00:37.174Z,58.43
2018-08-09T18:03:06.996Z,59.87
2018-08-09T18:05:36.935Z,59.01
2018-08-09T18:08:06.938Z,59.77
2018-08-09T18:10:37.102Z,59.31
2018-08-09T18:13:07.566Z,59.83
2018-08-09T18:15:37.830Z,60.16
2018-08-09T18:18:07.555Z,59.62
2018-08-09T18:20:40.066Z,59.57
2018-08-09T18:23:10.242Z,60.86
2018-08-09T18:25:39.850Z,59.33
2018-08-09T18:28:10.914Z,60.57
2018-08-09T18:30:40.676Z,60.96
2018-08-09T18:33:10.582Z,60.23
2018-08-09T18:35:40.216Z,61.20
2018-08-09T18:38:10.286Z,61.26
2018-08-09T18:40:39.892Z,60.44
2018-08-09T18:43:09.694Z,62.02
2018-08-09T18:45:39.848Z,63.97
2018-08-09T18:48:09.925Z,63.37
2018-08-09T18:50:40.138Z,64.53
2018-08-09T18:53:10.104Z,62.50
2018-08-09T18:55:39.948Z,62.46
2018-08-09T18:58:10.277Z,63.29
2018-08-09T19:00:40.585Z,62.33
2018-08-09T19:03:12.107Z,61.93
2018-08-09T19:05:41.749Z,63.39
2018-08-09T19:08:11.213Z,63.04
2018-08-09T19:10:40.913Z,63.30
2018-08-09T19:13:10.452Z,64.82
2018-08-09T19:15:40.012Z,64.26
2018-08-09T19:18:09.721Z,64.71
2018-08-09T19:20:39.525Z,63.55
2018-08-09T19:23:09.080Z,63.41
2018-08-09T19:25:39.296Z,63.77
2018-08-09T19:28:08.970Z,64.60
2018-08-09T19:30:38.831Z,63.89
2018-08-09T19:33:08.361Z,64.17
2018-08-09T19:35:38.166Z,63.01
2018-08-09T19:38:08.201Z,62.97
2018-08-09T19:40:40.150Z,62.46
2018-08-09T19:43:10.355Z,62.43
2018-08-09T19:45:41.526Z,62.37
2018-08-09T19:48:11.294Z,62.80
2018-08-09T19:50:41.398Z,61.85
2018-08-09T19:53:11.335Z,62.42
2018-08-09T19:55:41.419Z,62.08
2018-08-09T19:58:18.302Z,62.09
2018-08-09T20:00:51.277Z,60.72
2018-08-09T20:03:25.323Z,60.62
2018-08-09T20:05:58.383Z,61.33
2018-08-09T20:08:32.068Z,60.34
2018-08-09T20:11:05.527Z,61.27
2018-08-09T20:13:38.968Z,61.08
2018-08-09T20:16:12.629Z,60.04
2018-08-09T20:18:45.522Z,60.55
2018-08-09T20:21:19.235Z,60.65
2018-08-09T20:23:49.566Z,59.40
2018-08-09T20:26:22.695Z,60.60
2018-08-09T20:28:55.879Z,59.60
2018-08-09T20:31:28.844Z,59.96
2018-08-09T20:34:02.329Z,59.46
2018-08-09T20:36:35.360Z,59.73
2018-08-09T20:39:13.154Z,59.58
2018-08-09T20:41:46.522Z,59.66
2018-08-09T20:44:19.759Z,59.85
2018-08-09T20:46:53.329Z,59.24
2018-08-09T20:49:26.654Z,59.05
2018-08-09T20:51:56.355Z,60.22
2018-08-09T20:54:27.854Z,60.11
2018-08-09T20:56:59.555Z,59.57
2018-08-09T20:59:31.803Z,58.86
2018-08-09T21:02:04.161Z,59.56
2018-08-09T21:04:34.814Z,58.64
2018-08-09T21:07:06.414Z,59.54
2018-08-09T21:09:37.782Z,59.08
2018-08-09T21:12:07.899Z,59.56
2018-08-09T21:14:40.269Z,59.14
2018-08-09T21:17:12.582Z,58.58
2018-08-09T21:19:44.323Z,59.91
2018-08-09T21:22:16.148Z,58.77
2018-08-09T21:24:48.588Z,58.86
2018-08-09T21:27:20.692Z,58.47
2018-08-09T21:29:53.261Z,58.86
2018-08-09T21:32:27.178Z,58.33
2018-08-09T21:35:00.789Z,57.97
2018-08-09T21:37:33.100Z,57.39
2018-08-09T21:40:07.278Z,57.62
2018-08-09T21:42:40.643Z,57.87
2018-08-09T21:45:17.968Z,57.87
2018-08-09T21:47:51.191Z,57.80
2018-08-09T21:50:23.217Z,58.32
2018-08-09T21:52:56.845Z,57.53
2018-08-09T21:55:30.150Z,58.32
2018-08-09T21:58:00.061Z,59.06
2018-08-09T22:00:55.702Z,58.73
2018-08-09T22:03:32.265Z,58.93
2018-08-09T22:06:07.740Z,60.40
2018-08-09T22:08:42.887Z,59.83
2018-08-09T22:12:16.705Z,60.46
2018-08-09T22:14:51.826Z,60.85
2018-08-09T22:17:26.700Z,61.30
2018-08-09T22:20:02.528Z,60.43
2018-08-09T22:22:32.440Z,60.85
2018-08-09T22:25:02.227Z,61.64
2018-08-09T22:27:31.766Z,62.29
2018-08-09T22:30:01.588Z,61.71
2018-08-09T22:32:31.466Z,62.80
2018-08-09T22:35:01.386Z,62.01
2018-08-09T22:37:30.868Z,62.20
2018-08-09T22:40:00.956Z,61.85
2018-08-09T22:42:30.629Z,63.28
2018-08-09T22:45:00.545Z,62.90
2018-08-09T22:47:30.102Z,63.30
2018-08-09T22:50:00.174Z,62.35
2018-08-09T22:52:29.919Z,63.61
2018-08-09T22:55:00.103Z,63.62
2018-08-09T22:57:29.625Z,62.25
2018-08-09T22:59:59.315Z,62.69
2018-08-09T23:02:28.913Z,63.23
2018-08-09T23:04:58.533Z,63.31
2018-08-09T23:07:28.753Z,63.77
2018-08-09T23:09:58.559Z,63.44
2018-08-09T23:12:28.594Z,63.80
2018-08-09T23:14:59.166Z,63.64
2018-08-09T23:17:28.974Z,63.97
2018-08-09T23:19:58.971Z,63.40
2018-08-09T23:22:28.741Z,64.25
2018-08-09T23:24:58.790Z,64.43
2018-08-09T23:27:28.505Z,64.75
2018-08-09T23:29:58.288Z,65.05
2018-08-09T23:32:28.110Z,64.31
2018-08-09T23:34:57.894Z,65.43
2018-08-09T23:37:27.660Z,64.91
2018-08-09T23:39:58.231Z,65.11
2018-08-09T23:42:28.006Z,63.97
2018-08-09T23:44:58.108Z,64.63
2018-08-09T23:47:28.017Z,63.61
2018-08-09T23:49:57.727Z,63.39
2018-08-09T23:52:27.553Z,62.76
2018-08-09T23:54:57.283Z,63.20
2018-08-09T23:57:27.100Z,63.86
2018-08-09T23:59:56.715Z,63.09
